createdAt,value
2018-12-01T00:00:17.618Z,11.9
2018-12-01T00:05:17.667Z,7.2
2018-12-01T00:10:17.964Z,11.6
2018-12-01T00:15:16.907Z,7.3
2018-12-01T00:20:17.000Z,11.7
2018-12-01T00:25:17.207Z,12
2018-12-01T00:30:17.108Z,11.8
2018-12-01T00:35:17.258Z,10.3
2018-12-01T00:40:17.604Z,8.7
2018-12-01T00:45:17.472Z,12.4
2018-12-01T00:50:17.659Z,8.4
2018-12-01T00:55:22.639Z,12.1
2018-12-01T01:00:17.815Z,12.4
2018-12-01T01:05:17.714Z,12.4
2018-12-01T01:10:16.883Z,12.5
2018-12-01T01:15:22.731Z,9.5
2018-12-01T01:20:17.146Z,12.1
2018-12-01T01:25:17.054Z,12.1
2018-12-01T01:30:16.963Z,12.5
2018-12-01T01:35:16.985Z,11.9
2018-12-01T01:40:17.496Z,11.8
2018-12-01T01:45:17.639Z,12.9
2018-12-01T01:50:17.648Z,13
2018-12-01T01:55:17.936Z,11.7
2018-12-01T02:00:16.853Z,7.5
2018-12-01T02:05:17.930Z,12.7
2018-12-01T02:10:17.048Z,12.5
2018-12-01T02:15:16.959Z,12.8
2018-12-01T02:20:17.124Z,13.8
2018-12-01T02:25:17.005Z,9.4
2018-12-01T02:30:17.272Z,13.7
2018-12-01T02:35:17.090Z,14.4
2018-12-01T02:40:17.174Z,10
2018-12-01T02:45:16.995Z,15.2
2018-12-01T02:50:16.839Z,14.2
2018-12-01T02:55:17.666Z,10.2
2018-12-01T03:00:17.859Z,15.1
2018-12-01T03:05:17.671Z,16
2018-12-01T03:10:17.672Z,13.1
2018-12-01T03:15:17.463Z,9
2018-12-01T03:20:17.439Z,16.4
2018-12-01T03:25:17.406Z,14.3
2018-12-01T03:30:17.264Z,17.5
2018-12-01T03:35:17.272Z,11.3
2018-12-01T03:40:17.311Z,17.2
2018-12-01T03:45:17.219Z,17.2
2018-12-01T03:50:17.056Z,16.5
2018-12-01T03:55:16.883Z,16.9
2018-12-01T04:00:17.748Z,17.6
2018-12-01T04:05:17.568Z,17.5
2018-12-01T04:10:17.642Z,17.8
2018-12-01T04:15:17.456Z,18.1
2018-12-01T04:20:17.451Z,15
2018-12-01T04:25:17.353Z,18.1
2018-12-01T04:30:17.258Z,18.9
2018-12-01T04:35:17.116Z,19
2018-12-01T04:40:17.172Z,20
2018-12-01T04:45:16.963Z,12.1
2018-12-01T04:50:16.802Z,12.3
2018-12-01T04:55:17.884Z,22.8
2018-12-01T05:00:18.027Z,16.9
2018-12-01T05:05:16.868Z,25.6
2018-12-01T05:10:16.887Z,25.7
2018-12-01T05:15:17.783Z,22.1
2018-12-01T05:20:16.779Z,27.3
2018-12-01T05:25:17.580Z,21.4
2018-12-01T05:30:17.359Z,21.9
2018-12-01T05:35:17.159Z,27.8
2018-12-01T05:40:17.171Z,29.7
2018-12-01T05:45:17.091Z,30
2018-12-01T05:50:16.888Z,32.4
2018-12-01T05:55:17.759Z,33
2018-12-01T06:00:17.616Z,24.2
2018-12-01T06:05:17.437Z,33.2
2018-12-01T06:10:17.444Z,35.1
2018-12-01T06:15:17.255Z,35.3
2018-12-01T06:20:17.216Z,22.4
2018-12-01T06:25:17.354Z,37
2018-12-01T06:30:17.219Z,36.4
2018-12-01T06:35:17.036Z,34.6
2018-12-01T06:40:17.126Z,26.1
2018-12-01T06:45:16.908Z,20.5
2018-12-01T06:50:17.759Z,36.2
2018-12-01T06:55:17.675Z,25.1
2018-12-01T07:00:17.988Z,26.8
2018-12-01T07:05:16.791Z,28.2
2018-12-01T07:10:16.790Z,27.6
2018-12-01T07:15:17.679Z,29.1
2018-12-01T07:20:17.636Z,28.6
2018-12-01T07:25:17.755Z,36.4
2018-12-01T07:30:17.588Z,35.6
2018-12-01T07:35:17.667Z,34.5
2018-12-01T07:40:17.799Z,32.6
2018-12-01T07:45:17.695Z,32.2
2018-12-01T07:50:17.480Z,24.5
2018-12-01T07:55:17.272Z,20.4
2018-12-01T08:00:17.244Z,26
2018-12-01T08:05:17.401Z,21.4
2018-12-01T08:10:17.502Z,27.4
2018-12-01T08:15:17.603Z,24.6
2018-12-01T08:20:17.747Z,26.3
2018-12-01T08:25:17.581Z,18.3
2018-12-01T08:30:17.764Z,26.7
2018-12-01T08:35:17.759Z,20.1
2018-12-01T08:40:16.896Z,24.9
2018-12-01T08:45:17.996Z,22.9
2018-12-01T08:50:16.952Z,22.7
2018-12-01T08:55:17.007Z,20.2
2018-12-01T09:00:16.976Z,21.8
2018-12-01T09:05:17.097Z,22.8
2018-12-01T09:10:17.455Z,21
2018-12-01T09:15:17.488Z,19.5
2018-12-01T09:20:17.691Z,12.1
2018-12-01T09:25:17.908Z,19.8
2018-12-01T09:30:16.803Z,17.4
2018-12-01T09:35:17.959Z,19.3
2018-12-01T09:40:17.064Z,19.5
2018-12-01T09:45:17.219Z,18.9
2018-12-01T09:50:17.456Z,15.1
2018-12-01T09:55:17.548Z,18.4
2018-12-01T10:00:17.611Z,12.8
2018-12-01T10:05:17.827Z,16.7
2018-12-01T10:10:22.076Z,15.3
2018-12-01T10:15:16.971Z,11.6
2018-12-01T10:20:17.131Z,18.4
2018-12-01T10:25:17.212Z,18
2018-12-01T10:30:17.288Z,11.6
2018-12-01T10:35:17.172Z,15.8
2018-12-01T10:40:17.551Z,16.7
2018-12-01T10:45:17.483Z,8.4
2018-12-01T10:50:17.635Z,9.1
2018-12-01T10:55:17.608Z,15.6
2018-12-01T11:00:17.699Z,15.7
2018-12-01T11:05:17.655Z,10.8
2018-12-01T11:10:17.877Z,16.3
2018-12-01T11:15:17.787Z,15.1
2018-12-01T11:20:18.022Z,15.7
2018-12-01T11:25:16.961Z,15.5
2018-12-01T11:30:17.112Z,15.4
2018-12-01T11:35:17.495Z,14.4
2018-12-01T11:40:17.646Z,14.3
2018-12-01T11:45:17.628Z,11.3
2018-12-01T11:50:17.796Z,13.8
2018-12-01T11:55:17.691Z,7.2
2018-12-01T12:00:17.834Z,13.6
2018-12-01T12:05:17.891Z,10.7
2018-12-01T12:10:17.067Z,13.4
2018-12-01T12:15:17.227Z,12.5
2018-12-01T12:20:17.659Z,13.9
2018-12-01T12:25:17.771Z,13.7
2018-12-01T12:30:17.857Z,14.2
2018-12-01T12:35:17.764Z,7.5
2018-12-01T12:40:17.067Z,15.5
2018-12-01T12:45:17.319Z,14.7
2018-12-01T12:50:17.259Z,15.8
2018-12-01T12:55:17.371Z,16.1
2018-12-01T13:00:17.361Z,12.6
2018-12-01T13:05:17.547Z,16.5
2018-12-01T13:10:17.888Z,13.3
2018-12-01T13:15:18.077Z,15.8
2018-12-01T13:20:17.395Z,10.2
2018-12-01T13:25:17.465Z,13.9
2018-12-01T13:30:17.391Z,9.3
2018-12-01T13:35:17.745Z,14.6
2018-12-01T13:40:16.872Z,13.9
2018-12-01T13:45:17.815Z,13.6
2018-12-01T13:50:17.899Z,11.6
2018-12-01T13:55:17.979Z,13.4
2018-12-01T14:00:16.927Z,13.6
2018-12-01T14:05:17.132Z,12.7
2018-12-01T14:10:17.323Z,8.2
2018-12-01T14:15:17.455Z,13
2018-12-01T14:20:17.544Z,11.5
2018-12-01T14:25:17.672Z,8.5
2018-12-01T14:30:17.760Z,12.1
2018-12-01T14:35:17.753Z,12.2
2018-12-01T14:40:16.941Z,12.4
2018-12-01T14:45:16.897Z,11.6
2018-12-01T14:50:18.075Z,11.3
2018-12-01T14:55:17.045Z,8.7
2018-12-01T15:00:17.027Z,11.6
2018-12-01T15:05:17.050Z,11.3
2018-12-01T15:10:17.323Z,11.7
2018-12-01T15:15:18.104Z,11.3
2018-12-01T15:20:17.366Z,11.4
2018-12-01T15:25:17.268Z,7.5
2018-12-01T15:30:17.343Z,9.8
2018-12-01T15:35:17.544Z,10.9
2018-12-01T15:40:17.634Z,7.7
2018-12-01T15:45:18.016Z,10.4
2018-12-01T15:50:16.807Z,9.3
2018-12-01T15:55:17.747Z,10
2018-12-01T16:00:18.147Z,9.1
2018-12-01T16:05:17.552Z,9.7
2018-12-01T16:10:17.782Z,6.9
2018-12-01T16:15:17.766Z,8.9
2018-12-01T16:20:16.871Z,7.8
2018-12-01T16:25:18.072Z,8.8
2018-12-01T16:30:17.195Z,8.7
2018-12-01T16:35:17.136Z,8.4
2018-12-01T16:40:17.344Z,8.2
2018-12-01T16:45:17.219Z,6.2
2018-12-01T16:50:17.395Z,7.5
2018-12-01T16:55:17.518Z,7.3
2018-12-01T17:00:17.534Z,7.9
2018-12-01T17:05:17.543Z,10.4
2018-12-01T17:10:17.915Z,7.5
2018-12-01T17:15:17.240Z,5.5
2018-12-01T17:20:17.447Z,7.2
2018-12-01T17:25:17.436Z,3.6
2018-12-01T17:30:17.448Z,7.3
2018-12-01T17:35:17.544Z,7.1
2018-12-01T17:40:17.760Z,6.5
2018-12-01T17:45:17.683Z,6.3
2018-12-01T17:50:17.852Z,4.6
2018-12-01T17:55:17.827Z,6.3
2018-12-01T18:00:16.929Z,6.9
2018-12-01T18:05:17.135Z,6.3
2018-12-01T18:10:17.455Z,6.5
2018-12-01T18:15:17.559Z,6.7
2018-12-01T18:20:17.703Z,6.8
2018-12-01T18:25:17.587Z,6.4
2018-12-01T18:30:17.444Z,6.3
2018-12-01T18:35:17.532Z,5.8
2018-12-01T18:40:17.835Z,5.9
2018-12-01T18:45:17.759Z,6
2018-12-01T18:50:17.965Z,5.8
2018-12-01T18:55:16.888Z,5.5
2018-12-01T19:00:17.791Z,5.7
2018-12-01T19:05:17.860Z,2.6
2018-12-01T19:10:16.879Z,3.8
2018-12-01T19:15:17.883Z,5.3
2018-12-01T19:20:17.132Z,6.2
2018-12-01T19:25:17.339Z,5.6
2018-12-01T19:30:17.512Z,5.3
2018-12-01T19:35:17.564Z,4
2018-12-01T19:40:17.991Z,4.5
2018-12-01T19:45:16.972Z,4.8
2018-12-01T19:50:17.231Z,4.8
2018-12-01T19:55:17.139Z,4.5
2018-12-01T20:00:17.039Z,3.1
2018-12-01T20:05:17.159Z,1.5
2018-12-01T20:10:17.299Z,4.4
2018-12-01T20:15:17.235Z,4.9
2018-12-01T20:20:17.618Z,4.5
2018-12-01T20:25:18.010Z,4.8
2018-12-01T20:30:16.908Z,4.8
2018-12-01T20:35:17.965Z,3.4
2018-12-01T20:40:17.187Z,4.5
2018-12-01T20:45:17.272Z,1.5
2018-12-01T20:50:17.304Z,3.4
2018-12-01T20:55:17.319Z,5.1
2018-12-01T21:00:17.467Z,3.2
2018-12-01T21:05:17.461Z,4.4
2018-12-01T21:10:17.702Z,5.9
2018-12-01T21:15:17.611Z,4.6
2018-12-01T21:20:17.647Z,4.6
2018-12-01T21:25:17.504Z,4.6
2018-12-01T21:30:17.323Z,4.7
2018-12-01T21:35:17.169Z,4.5
2018-12-01T21:40:17.428Z,2.8
2018-12-01T21:45:17.248Z,4.5
2018-12-01T21:50:17.047Z,3.8
2018-12-01T21:55:17.221Z,4.8
2018-12-01T22:00:17.434Z,4.6
2018-12-01T22:05:17.360Z,4.7
2018-12-01T22:10:17.584Z,4.7
2018-12-01T22:15:17.664Z,4.3
2018-12-01T22:20:17.840Z,3.4
2018-12-01T22:25:17.649Z,4.2
2018-12-01T22:30:17.464Z,5
2018-12-01T22:35:17.644Z,4.4
2018-12-01T22:40:17.996Z,3.4
2018-12-01T22:45:17.356Z,4
2018-12-01T22:50:17.339Z,4.4
2018-12-01T22:55:17.248Z,4.2
2018-12-01T23:00:17.159Z,4.5
2018-12-01T23:05:17.323Z,5
2018-12-01T23:10:17.295Z,4.3
2018-12-01T23:15:17.103Z,5.5
2018-12-01T23:20:17.447Z,5.1
2018-12-01T23:25:17.247Z,3.2
2018-12-01T23:30:17.054Z,5.5
2018-12-01T23:35:16.900Z,5.9
2018-12-01T23:40:16.920Z,6.1
2018-12-01T23:45:16.786Z,6.7
2018-12-01T23:50:17.985Z,5.6
2018-12-01T23:55:16.821Z,6.9
